sensor_id;sensor_type;location;lat;lon;timestamp;P1;durP1;ratioP1;P2;durP2;ratioP2
53497;SDS011;39382;47.168;16.008;2022-08-01T00:01:52;1.63;;;1.50;;
53497;SDS011;39382;47.168;16.008;2022-08-01T00:04:18;2.08;;;1.90;;
53497;SDS011;39382;47.168;16.008;2022-08-01T00:06:44;2.03;;;1.80;;
53497;SDS011;39382;47.168;16.008;2022-08-01T00:09:09;1.88;;;1.77;;
53497;SDS011;39382;47.168;16.008;2022-08-01T00:11:35;1.98;;;1.88;;
53497;SDS011;39382;47.168;16.008;2022-08-01T00:14:01;2.10;;;2.00;;
53497;SDS011;39382;47.168;16.008;2022-08-01T00:16:27;2.97;;;2.20;;
53497;SDS011;39382;47.168;16.008;2022-08-01T00:18:53;2.03;;;1.88;;
53497;SDS011;39382;47.168;16.008;2022-08-01T00:21:19;2.45;;;1.70;;
53497;SDS011;39382;47.168;16.008;2022-08-01T00:23:44;2.72;;;1.85;;
53497;SDS011;39382;47.168;16.008;2022-08-01T00:26:11;1.88;;;1.73;;
53497;SDS011;39382;47.168;16.008;2022-08-01T00:28:37;2.33;;;2.13;;
53497;SDS011;39382;47.168;16.008;2022-08-01T00:31:03;1.60;;;1.50;;
53497;SDS011;39382;47.168;16.008;2022-08-01T00:33:29;2.05;;;1.90;;
53497;SDS011;39382;47.168;16.008;2022-08-01T00:35:55;3.88;;;1.77;;
53497;SDS011;39382;47.168;16.008;2022-08-01T00:38:20;2.13;;;1.90;;
53497;SDS011;39382;47.168;16.008;2022-08-01T00:40:46;4.68;;;2.10;;
53497;SDS011;39382;47.168;16.008;2022-08-01T00:43:12;1.67;;;1.58;;
53497;SDS011;39382;47.168;16.008;2022-08-01T00:45:39;2.92;;;1.90;;
53497;SDS011;39382;47.168;16.008;2022-08-01T00:48:04;2.35;;;2.05;;
53497;SDS011;39382;47.168;16.008;2022-08-01T00:50:30;3.47;;;2.00;;
53497;SDS011;39382;47.168;16.008;2022-08-01T00:52:57;2.10;;;1.90;;
53497;SDS011;39382;47.168;16.008;2022-08-01T00:55:24;2.25;;;2.00;;
53497;SDS011;39382;47.168;16.008;2022-08-01T00:57:49;2.15;;;2.03;;
53497;SDS011;39382;47.168;16.008;2022-08-01T01:00:15;2.30;;;2.13;;
53497;SDS011;39382;47.168;16.008;2022-08-01T01:02:41;5.78;;;2.15;;
53497;SDS011;39382;47.168;16.008;2022-08-01T01:05:07;2.30;;;2.10;;
53497;SDS011;39382;47.168;16.008;2022-08-01T01:07:55;2.05;;;1.83;;
53497;SDS011;39382;47.168;16.008;2022-08-01T01:13:38;3.17;;;2.13;;
53497;SDS011;39382;47.168;16.008;2022-08-01T01:16:15;2.53;;;2.35;;
53497;SDS011;39382;47.168;16.008;2022-08-01T01:18:46;1.80;;;1.70;;
53497;SDS011;39382;47.168;16.008;2022-08-01T01:29:27;2.30;;;2.10;;
53497;SDS011;39382;47.168;16.008;2022-08-01T01:32:07;1.83;;;1.70;;
53497;SDS011;39382;47.168;16.008;2022-08-01T01:34:38;2.35;;;2.00;;
53497;SDS011;39382;47.168;16.008;2022-08-01T01:37:08;4.03;;;1.95;;
53497;SDS011;39382;47.168;16.008;2022-08-01T01:39:37;1.98;;;1.88;;
53497;SDS011;39382;47.168;16.008;2022-08-01T01:42:05;1.98;;;1.83;;
53497;SDS011;39382;47.168;16.008;2022-08-01T01:44:31;3.58;;;2.10;;
53497;SDS011;39382;47.168;16.008;2022-08-01T01:46:58;2.40;;;2.20;;
53497;SDS011;39382;47.168;16.008;2022-08-01T01:49:26;2.40;;;2.20;;
53497;SDS011;39382;47.168;16.008;2022-08-01T01:51:53;3.03;;;2.08;;
53497;SDS011;39382;47.168;16.008;2022-08-01T01:54:22;5.25;;;2.00;;
53497;SDS011;39382;47.168;16.008;2022-08-01T01:56:50;5.82;;;2.13;;
53497;SDS011;39382;47.168;16.008;2022-08-01T01:59:20;1.92;;;1.83;;
53497;SDS011;39382;47.168;16.008;2022-08-01T02:01:49;2.33;;;2.13;;
53497;SDS011;39382;47.168;16.008;2022-08-01T02:04:17;5.28;;;2.08;;
53497;SDS011;39382;47.168;16.008;2022-08-01T02:06:45;1.85;;;1.75;;
53497;SDS011;39382;47.168;16.008;2022-08-01T02:09:14;2.38;;;2.17;;
53497;SDS011;39382;47.168;16.008;2022-08-01T02:11:42;2.45;;;1.98;;
53497;SDS011;39382;47.168;16.008;2022-08-01T02:14:10;2.63;;;2.42;;
53497;SDS011;39382;47.168;16.008;2022-08-01T02:16:37;2.45;;;2.22;;
53497;SDS011;39382;47.168;16.008;2022-08-01T02:19:06;2.05;;;1.77;;
53497;SDS011;39382;47.168;16.008;2022-08-01T02:21:34;4.28;;;1.98;;
53497;SDS011;39382;47.168;16.008;2022-08-01T02:24:14;2.30;;;2.10;;
53497;SDS011;39382;47.168;16.008;2022-08-01T02:27:04;2.30;;;2.10;;
53497;SDS011;39382;47.168;16.008;2022-08-01T02:29:45;2.30;;;2.10;;
53497;SDS011;39382;47.168;16.008;2022-08-01T02:32:20;2.15;;;1.95;;
53497;SDS011;39382;47.168;16.008;2022-08-01T02:34:51;5.75;;;2.20;;
53497;SDS011;39382;47.168;16.008;2022-08-01T02:37:18;2.92;;;2.28;;
53497;SDS011;39382;47.168;16.008;2022-08-01T02:39:46;2.55;;;2.33;;
53497;SDS011;39382;47.168;16.008;2022-08-01T02:42:14;4.85;;;2.35;;
53497;SDS011;39382;47.168;16.008;2022-08-01T02:44:43;3.05;;;2.08;;
53497;SDS011;39382;47.168;16.008;2022-08-01T02:47:11;5.70;;;2.38;;
53497;SDS011;39382;47.168;16.008;2022-08-01T02:49:44;5.35;;;2.50;;
53497;SDS011;39382;47.168;16.008;2022-08-01T02:52:13;2.47;;;2.28;;
53497;SDS011;39382;47.168;16.008;2022-08-01T02:54:47;2.13;;;2.00;;
53497;SDS011;39382;47.168;16.008;2022-08-01T02:57:14;2.50;;;2.30;;
53497;SDS011;39382;47.168;16.008;2022-08-01T02:59:41;2.80;;;2.13;;
53497;SDS011;39382;47.168;16.008;2022-08-01T03:02:07;3.05;;;2.15;;
53497;SDS011;39382;47.168;16.008;2022-08-01T03:04:35;3.35;;;2.58;;
53497;SDS011;39382;47.168;16.008;2022-08-01T03:07:03;1.80;;;1.70;;
53497;SDS011;39382;47.168;16.008;2022-08-01T03:09:32;2.10;;;1.90;;
53497;SDS011;39382;47.168;16.008;2022-08-01T03:12:02;2.50;;;2.30;;
53497;SDS011;39382;47.168;16.008;2022-08-01T03:14:30;2.83;;;1.90;;
53497;SDS011;39382;47.168;16.008;2022-08-01T03:16:59;2.30;;;2.10;;
53497;SDS011;39382;47.168;16.008;2022-08-01T03:19:25;3.20;;;2.17;;
53497;SDS011;39382;47.168;16.008;2022-08-01T03:21:53;3.15;;;2.10;;
53497;SDS011;39382;47.168;16.008;2022-08-01T03:24:23;2.67;;;2.30;;
53497;SDS011;39382;47.168;16.008;2022-08-01T03:26:50;2.60;;;2.05;;
53497;SDS011;39382;47.168;16.008;2022-08-01T03:29:20;2.42;;;2.13;;
53497;SDS011;39382;47.168;16.008;2022-08-01T03:31:49;2.10;;;1.92;;
53497;SDS011;39382;47.168;16.008;2022-08-01T03:34:16;3.10;;;2.00;;
53497;SDS011;39382;47.168;16.008;2022-08-01T03:36:54;2.53;;;2.33;;
53497;SDS011;39382;47.168;16.008;2022-08-01T03:39:25;2.53;;;2.33;;
53497;SDS011;39382;47.168;16.008;2022-08-01T03:41:58;2.30;;;2.10;;
53497;SDS011;39382;47.168;16.008;2022-08-01T03:44:27;2.63;;;2.40;;
53497;SDS011;39382;47.168;16.008;2022-08-01T03:46:58;2.53;;;2.30;;
53497;SDS011;39382;47.168;16.008;2022-08-01T03:49:28;2.85;;;2.28;;
53497;SDS011;39382;47.168;16.008;2022-08-01T03:51:56;2.08;;;1.98;;
53497;SDS011;39382;47.168;16.008;2022-08-01T03:54:28;2.38;;;2.17;;
53497;SDS011;39382;47.168;16.008;2022-08-01T03:56:58;2.53;;;2.25;;
53497;SDS011;39382;47.168;16.008;2022-08-01T03:59:25;2.22;;;2.08;;
53497;SDS011;39382;47.168;16.008;2022-08-01T04:01:52;4.45;;;2.47;;
53497;SDS011;39382;47.168;16.008;2022-08-01T04:04:18;2.38;;;2.17;;
53497;SDS011;39382;47.168;16.008;2022-08-01T04:06:44;3.60;;;2.47;;
53497;SDS011;39382;47.168;16.008;2022-08-01T04:09:10;2.42;;;2.22;;
53497;SDS011;39382;47.168;16.008;2022-08-01T04:11:37;2.72;;;2.10;;
53497;SDS011;39382;47.168;16.008;2022-08-01T04:14:03;4.82;;;2.30;;
53497;SDS011;39382;47.168;16.008;2022-08-01T04:16:28;2.05;;;1.85;;
53497;SDS011;39382;47.168;16.008;2022-08-01T04:18:54;3.15;;;1.60;;
53497;SDS011;39382;47.168;16.008;2022-08-01T04:21:22;2.10;;;1.90;;
53497;SDS011;39382;47.168;16.008;2022-08-01T04:23:50;2.05;;;1.85;;
53497;SDS011;39382;47.168;16.008;2022-08-01T04:26:17;4.85;;;2.50;;
53497;SDS011;39382;47.168;16.008;2022-08-01T04:28:44;3.08;;;2.10;;
53497;SDS011;39382;47.168;16.008;2022-08-01T04:31:11;2.30;;;1.80;;
53497;SDS011;39382;47.168;16.008;2022-08-01T04:33:40;3.20;;;2.35;;
53497;SDS011;39382;47.168;16.008;2022-08-01T04:36:10;2.90;;;2.70;;
53497;SDS011;39382;47.168;16.008;2022-08-01T04:38:39;5.13;;;2.33;;
53497;SDS011;39382;47.168;16.008;2022-08-01T04:41:07;3.25;;;2.20;;
53497;SDS011;39382;47.168;16.008;2022-08-01T04:43:36;2.97;;;2.35;;
53497;SDS011;39382;47.168;16.008;2022-08-01T04:46:03;2.97;;;2.30;;
53497;SDS011;39382;47.168;16.008;2022-08-01T04:48:31;4.53;;;2.55;;
53497;SDS011;39382;47.168;16.008;2022-08-01T04:50:58;2.00;;;1.90;;
53497;SDS011;39382;47.168;16.008;2022-08-01T04:53:25;3.00;;;2.25;;
53497;SDS011;39382;47.168;16.008;2022-08-01T04:55:51;2.45;;;2.25;;
53497;SDS011;39382;47.168;16.008;2022-08-01T04:58:17;2.03;;;1.92;;
53497;SDS011;39382;47.168;16.008;2022-08-01T05:00:43;4.00;;;2.40;;
53497;SDS011;39382;47.168;16.008;2022-08-01T05:03:08;3.80;;;1.90;;
53497;SDS011;39382;47.168;16.008;2022-08-01T05:05:34;3.00;;;2.10;;
53497;SDS011;39382;47.168;16.008;2022-08-01T05:08:00;2.95;;;2.55;;
53497;SDS011;39382;47.168;16.008;2022-08-01T05:10:26;2.47;;;2.17;;
53497;SDS011;39382;47.168;16.008;2022-08-01T05:12:52;4.28;;;3.20;;
53497;SDS011;39382;47.168;16.008;2022-08-01T05:15:18;2.63;;;2.42;;
53497;SDS011;39382;47.168;16.008;2022-08-01T05:17:44;6.03;;;2.38;;
53497;SDS011;39382;47.168;16.008;2022-08-01T05:20:10;2.72;;;2.53;;
53497;SDS011;39382;47.168;16.008;2022-08-01T05:22:37;2.63;;;2.42;;
53497;SDS011;39382;47.168;16.008;2022-08-01T05:25:03;3.05;;;2.13;;
53497;SDS011;39382;47.168;16.008;2022-08-01T05:27:32;2.67;;;2.45;;
53497;SDS011;39382;47.168;16.008;2022-08-01T05:30:03;2.63;;;2.42;;
53497;SDS011;39382;47.168;16.008;2022-08-01T05:32:29;6.32;;;2.50;;
53497;SDS011;39382;47.168;16.008;2022-08-01T05:34:57;2.78;;;2.50;;
53497;SDS011;39382;47.168;16.008;2022-08-01T05:37:22;3.15;;;2.53;;
53497;SDS011;39382;47.168;16.008;2022-08-01T05:39:48;2.67;;;2.10;;
53497;SDS011;39382;47.168;16.008;2022-08-01T05:42:14;2.85;;;2.65;;
53497;SDS011;39382;47.168;16.008;2022-08-01T05:44:39;2.10;;;1.90;;
53497;SDS011;39382;47.168;16.008;2022-08-01T05:47:05;2.28;;;2.08;;
53497;SDS011;39382;47.168;16.008;2022-08-01T05:49:31;2.92;;;2.60;;
53497;SDS011;39382;47.168;16.008;2022-08-01T05:51:56;2.85;;;2.15;;
53497;SDS011;39382;47.168;16.008;2022-08-01T05:54:22;1.83;;;1.73;;
53497;SDS011;39382;47.168;16.008;2022-08-01T05:56:47;2.13;;;1.88;;
53497;SDS011;39382;47.168;16.008;2022-08-01T05:59:13;2.05;;;1.90;;
53497;SDS011;39382;47.168;16.008;2022-08-01T06:01:39;1.95;;;1.85;;
53497;SDS011;39382;47.168;16.008;2022-08-01T06:04:04;2.42;;;1.90;;
53497;SDS011;39382;47.168;16.008;2022-08-01T06:06:30;4.35;;;2.25;;
53497;SDS011;39382;47.168;16.008;2022-08-01T06:08:56;1.75;;;1.65;;
53497;SDS011;39382;47.168;16.008;2022-08-01T06:11:21;1.88;;;1.77;;
53497;SDS011;39382;47.168;16.008;2022-08-01T06:13:47;2.33;;;2.00;;
53497;SDS011;39382;47.168;16.008;2022-08-01T06:16:13;2.53;;;1.55;;
53497;SDS011;39382;47.168;16.008;2022-08-01T06:18:38;2.30;;;2.10;;
53497;SDS011;39382;47.168;16.008;2022-08-01T06:21:04;2.28;;;1.80;;
53497;SDS011;39382;47.168;16.008;2022-08-01T06:23:30;3.72;;;1.70;;
53497;SDS011;39382;47.168;16.008;2022-08-01T06:25:56;1.45;;;1.35;;
53497;SDS011;39382;47.168;16.008;2022-08-01T06:28:23;2.75;;;1.77;;
53497;SDS011;39382;47.168;16.008;2022-08-01T06:30:49;3.47;;;1.70;;
53497;SDS011;39382;47.168;16.008;2022-08-01T06:33:15;2.60;;;1.88;;
53497;SDS011;39382;47.168;16.008;2022-08-01T06:35:41;2.20;;;2.00;;
53497;SDS011;39382;47.168;16.008;2022-08-01T06:38:06;3.13;;;1.83;;
53497;SDS011;39382;47.168;16.008;2022-08-01T06:40:32;1.58;;;1.48;;
53497;SDS011;39382;47.168;16.008;2022-08-01T06:42:58;6.40;;;2.42;;
53497;SDS011;39382;47.168;16.008;2022-08-01T06:45:23;4.47;;;1.35;;
53497;SDS011;39382;47.168;16.008;2022-08-01T06:47:51;3.42;;;2.00;;
53497;SDS011;39382;47.168;16.008;2022-08-01T06:50:17;4.03;;;1.83;;
53497;SDS011;39382;47.168;16.008;2022-08-01T06:52:43;2.13;;;1.60;;
53497;SDS011;39382;47.168;16.008;2022-08-01T06:55:09;4.03;;;1.50;;
53497;SDS011;39382;47.168;16.008;2022-08-01T06:57:35;1.90;;;1.70;;
53497;SDS011;39382;47.168;16.008;2022-08-01T07:00:02;6.05;;;1.30;;
53497;SDS011;39382;47.168;16.008;2022-08-01T07:02:32;5.55;;;1.70;;
53497;SDS011;39382;47.168;16.008;2022-08-01T07:04:58;2.35;;;1.75;;
53497;SDS011;39382;47.168;16.008;2022-08-01T07:07:25;2.30;;;1.73;;
53497;SDS011;39382;47.168;16.008;2022-08-01T07:09:52;1.83;;;1.73;;
53497;SDS011;39382;47.168;16.008;2022-08-01T07:12:17;5.93;;;1.63;;
53497;SDS011;39382;47.168;16.008;2022-08-01T07:14:43;3.92;;;2.05;;
53497;SDS011;39382;47.168;16.008;2022-08-01T07:17:08;5.60;;;1.88;;
53497;SDS011;39382;47.168;16.008;2022-08-01T07:19:34;2.72;;;1.65;;
53497;SDS011;39382;47.168;16.008;2022-08-01T07:22:00;3.60;;;3.03;;
53497;SDS011;39382;47.168;16.008;2022-08-01T07:24:25;3.15;;;2.85;;
53497;SDS011;39382;47.168;16.008;2022-08-01T07:26:51;5.43;;;2.90;;
53497;SDS011;39382;47.168;16.008;2022-08-01T07:29:19;3.45;;;2.03;;
53497;SDS011;39382;47.168;16.008;2022-08-01T07:31:45;2.38;;;2.10;;
53497;SDS011;39382;47.168;16.008;2022-08-01T07:34:11;4.32;;;1.85;;
53497;SDS011;39382;47.168;16.008;2022-08-01T07:36:36;4.25;;;1.98;;
53497;SDS011;39382;47.168;16.008;2022-08-01T07:39:02;2.10;;;2.00;;
53497;SDS011;39382;47.168;16.008;2022-08-01T07:41:28;5.10;;;2.70;;
53497;SDS011;39382;47.168;16.008;2022-08-01T07:43:53;2.47;;;2.15;;
53497;SDS011;39382;47.168;16.008;2022-08-01T07:46:19;3.20;;;2.47;;
53497;SDS011;39382;47.168;16.008;2022-08-01T07:48:44;1.75;;;1.38;;
53497;SDS011;39382;47.168;16.008;2022-08-01T07:51:10;3.33;;;1.65;;
53497;SDS011;39382;47.168;16.008;2022-08-01T07:53:37;1.83;;;1.73;;
53497;SDS011;39382;47.168;16.008;2022-08-01T07:56:03;2.42;;;2.03;;
53497;SDS011;39382;47.168;16.008;2022-08-01T07:58:30;4.40;;;2.55;;
53497;SDS011;39382;47.168;16.008;2022-08-01T08:00:56;3.63;;;2.15;;
53497;SDS011;39382;47.168;16.008;2022-08-01T08:03:22;2.40;;;1.80;;
53497;SDS011;39382;47.168;16.008;2022-08-01T08:05:48;2.40;;;1.45;;
53497;SDS011;39382;47.168;16.008;2022-08-01T08:08:14;5.53;;;1.80;;
53497;SDS011;39382;47.168;16.008;2022-08-01T08:10:42;3.15;;;2.47;;
53497;SDS011;39382;47.168;16.008;2022-08-01T08:13:08;2.92;;;2.20;;
53497;SDS011;39382;47.168;16.008;2022-08-01T08:15:33;2.22;;;2.03;;
53497;SDS011;39382;47.168;16.008;2022-08-01T08:17:59;2.55;;;2.13;;
53497;SDS011;39382;47.168;16.008;2022-08-01T08:20:24;2.10;;;1.75;;
53497;SDS011;39382;47.168;16.008;2022-08-01T08:22:52;2.20;;;2.10;;
53497;SDS011;39382;47.168;16.008;2022-08-01T08:25:18;4.07;;;2.40;;
53497;SDS011;39382;47.168;16.008;2022-08-01T08:27:44;4.15;;;2.65;;
53497;SDS011;39382;47.168;16.008;2022-08-01T08:30:11;4.05;;;2.20;;
53497;SDS011;39382;47.168;16.008;2022-08-01T08:32:37;2.50;;;2.30;;
53497;SDS011;39382;47.168;16.008;2022-08-01T08:35:04;2.65;;;2.30;;
53497;SDS011;39382;47.168;16.008;2022-08-01T08:37:31;2.33;;;2.13;;
53497;SDS011;39382;47.168;16.008;2022-08-01T08:39:56;2.85;;;2.10;;
53497;SDS011;39382;47.168;16.008;2022-08-01T08:42:22;2.00;;;1.75;;
53497;SDS011;39382;47.168;16.008;2022-08-01T08:44:48;2.72;;;2.38;;
53497;SDS011;39382;47.168;16.008;2022-08-01T08:47:14;2.33;;;2.10;;
53497;SDS011;39382;47.168;16.008;2022-08-01T08:49:41;1.90;;;1.80;;
53497;SDS011;39382;47.168;16.008;2022-08-01T08:52:08;3.00;;;1.83;;
53497;SDS011;39382;47.168;16.008;2022-08-01T08:54:35;2.70;;;2.42;;
53497;SDS011;39382;47.168;16.008;2022-08-01T08:57:05;3.25;;;2.08;;
53497;SDS011;39382;47.168;16.008;2022-08-01T08:59:32;4.03;;;2.38;;
53497;SDS011;39382;47.168;16.008;2022-08-01T09:01:58;3.95;;;1.77;;
53497;SDS011;39382;47.168;16.008;2022-08-01T09:04:24;2.47;;;1.80;;
53497;SDS011;39382;47.168;16.008;2022-08-01T09:06:51;2.75;;;1.60;;
53497;SDS011;39382;47.168;16.008;2022-08-01T09:09:17;2.38;;;1.83;;
53497;SDS011;39382;47.168;16.008;2022-08-01T09:11:43;3.55;;;1.83;;
53497;SDS011;39382;47.168;16.008;2022-08-01T09:14:13;2.05;;;1.50;;
53497;SDS011;39382;47.168;16.008;2022-08-01T09:16:47;5.03;;;1.85;;
53497;SDS011;39382;47.168;16.008;2022-08-01T09:19:23;1.38;;;1.20;;
53497;SDS011;39382;47.168;16.008;2022-08-01T09:21:57;1.65;;;1.15;;
53497;SDS011;39382;47.168;16.008;2022-08-01T09:24:24;1.35;;;1.25;;
53497;SDS011;39382;47.168;16.008;2022-08-01T09:26:51;2.35;;;1.20;;
53497;SDS011;39382;47.168;16.008;2022-08-01T09:29:19;1.38;;;1.25;;
53497;SDS011;39382;47.168;16.008;2022-08-01T09:32:06;1.38;;;1.27;;
53497;SDS011;39382;47.168;16.008;2022-08-01T09:34:32;1.65;;;1.20;;
53497;SDS011;39382;47.168;16.008;2022-08-01T09:37:01;1.73;;;1.20;;
53497;SDS011;39382;47.168;16.008;2022-08-01T09:39:29;1.95;;;1.10;;
53497;SDS011;39382;47.168;16.008;2022-08-01T09:42:24;0.90;;;0.90;;
53497;SDS011;39382;47.168;16.008;2022-08-01T09:44:51;1.70;;;1.20;;
53497;SDS011;39382;47.168;16.008;2022-08-01T09:47:18;1.17;;;0.93;;
53497;SDS011;39382;47.168;16.008;2022-08-01T09:49:46;1.13;;;1.05;;
53497;SDS011;39382;47.168;16.008;2022-08-01T09:52:25;2.30;;;1.08;;
53497;SDS011;39382;47.168;16.008;2022-08-01T09:57:20;1.35;;;1.08;;
53497;SDS011;39382;47.168;16.008;2022-08-01T09:59:47;0.77;;;0.77;;
53497;SDS011;39382;47.168;16.008;2022-08-01T10:02:26;0.98;;;0.90;;
53497;SDS011;39382;47.168;16.008;2022-08-01T10:04:57;1.10;;;0.90;;
53497;SDS011;39382;47.168;16.008;2022-08-01T10:07:23;0.95;;;0.95;;
53497;SDS011;39382;47.168;16.008;2022-08-01T10:09:49;1.55;;;0.82;;
53497;SDS011;39382;47.168;16.008;2022-08-01T10:12:16;1.13;;;1.00;;
53497;SDS011;39382;47.168;16.008;2022-08-01T10:14:45;1.73;;;1.02;;
53497;SDS011;39382;47.168;16.008;2022-08-01T10:17:14;1.40;;;1.00;;
53497;SDS011;39382;47.168;16.008;2022-08-01T10:19:41;0.95;;;0.95;;
53497;SDS011;39382;47.168;16.008;2022-08-01T10:22:09;1.52;;;1.10;;
53497;SDS011;39382;47.168;16.008;2022-08-01T10:24:39;1.35;;;1.20;;
53497;SDS011;39382;47.168;16.008;2022-08-01T10:27:08;3.13;;;1.30;;
53497;SDS011;39382;47.168;16.008;2022-08-01T10:29:36;1.30;;;1.20;;
53497;SDS011;39382;47.168;16.008;2022-08-01T10:32:05;1.98;;;1.83;;
53497;SDS011;39382;47.168;16.008;2022-08-01T10:34:34;1.05;;;1.02;;
53497;SDS011;39382;47.168;16.008;2022-08-01T10:37:01;2.35;;;1.45;;
53497;SDS011;39382;47.168;16.008;2022-08-01T10:39:27;1.02;;;1.02;;
53497;SDS011;39382;47.168;16.008;2022-08-01T10:41:55;0.93;;;0.90;;
53497;SDS011;39382;47.168;16.008;2022-08-01T10:44:21;1.20;;;1.20;;
53497;SDS011;39382;47.168;16.008;2022-08-01T10:46:50;3.60;;;0.85;;
53497;SDS011;39382;47.168;16.008;2022-08-01T10:49:21;1.08;;;0.88;;
53497;SDS011;39382;47.168;16.008;2022-08-01T10:51:49;0.98;;;0.90;;
53497;SDS011;39382;47.168;16.008;2022-08-01T10:54:15;0.98;;;0.98;;
53497;SDS011;39382;47.168;16.008;2022-08-01T10:59:14;2.72;;;1.10;;
53497;SDS011;39382;47.168;16.008;2022-08-01T11:02:00;1.40;;;1.10;;
53497;SDS011;39382;47.168;16.008;2022-08-01T11:04:35;8.85;;;1.55;;
53497;SDS011;39382;47.168;16.008;2022-08-01T11:07:13;2.35;;;0.82;;
53497;SDS011;39382;47.168;16.008;2022-08-01T11:09:47;2.45;;;0.82;;
53497;SDS011;39382;47.168;16.008;2022-08-01T11:12:37;1.42;;;1.08;;
53497;SDS011;39382;47.168;16.008;2022-08-01T11:30:39;2.72;;;0.77;;
53497;SDS011;39382;47.168;16.008;2022-08-01T11:33:05;1.58;;;0.93;;
53497;SDS011;39382;47.168;16.008;2022-08-01T11:35:31;0.75;;;0.75;;
53497;SDS011;39382;47.168;16.008;2022-08-01T11:37:57;0.98;;;0.63;;
53497;SDS011;39382;47.168;16.008;2022-08-01T11:43:53;1.98;;;0.70;;
53497;SDS011;39382;47.168;16.008;2022-08-01T11:46:49;1.17;;;0.50;;
53497;SDS011;39382;47.168;16.008;2022-08-01T11:49:33;0.75;;;0.52;;
53497;SDS011;39382;47.168;16.008;2022-08-01T11:52:14;1.38;;;0.57;;
53497;SDS011;39382;47.168;16.008;2022-08-01T11:57:20;2.42;;;0.93;;
53497;SDS011;39382;47.168;16.008;2022-08-01T11:59:51;0.57;;;0.50;;
53497;SDS011;39382;47.168;16.008;2022-08-01T12:02:28;0.95;;;0.85;;
53497;SDS011;39382;47.168;16.008;2022-08-01T12:05:05;1.67;;;0.77;;
53497;SDS011;39382;47.168;16.008;2022-08-01T12:07:33;1.15;;;0.70;;
53497;SDS011;39382;47.168;16.008;2022-08-01T12:12:29;3.47;;;0.70;;
53497;SDS011;39382;47.168;16.008;2022-08-01T12:14:57;0.70;;;0.68;;
53497;SDS011;39382;47.168;16.008;2022-08-01T12:20:13;1.98;;;0.60;;
53497;SDS011;39382;47.168;16.008;2022-08-01T12:22:40;1.58;;;0.75;;
53497;SDS011;39382;47.168;16.008;2022-08-01T12:25:07;0.75;;;0.60;;
53497;SDS011;39382;47.168;16.008;2022-08-01T12:27:34;3.47;;;0.52;;
53497;SDS011;39382;47.168;16.008;2022-08-01T12:30:01;1.05;;;0.80;;
53497;SDS011;39382;47.168;16.008;2022-08-01T12:32:33;1.10;;;0.93;;
53497;SDS011;39382;47.168;16.008;2022-08-01T12:35:02;1.73;;;0.80;;
53497;SDS011;39382;47.168;16.008;2022-08-01T12:37:28;1.02;;;0.82;;
53497;SDS011;39382;47.168;16.008;2022-08-01T12:39:53;0.85;;;0.85;;
53497;SDS011;39382;47.168;16.008;2022-08-01T12:42:20;1.42;;;1.02;;
53497;SDS011;39382;47.168;16.008;2022-08-01T12:44:48;1.27;;;0.70;;
53497;SDS011;39382;47.168;16.008;2022-08-01T12:47:16;2.28;;;1.20;;
53497;SDS011;39382;47.168;16.008;2022-08-01T12:49:43;1.08;;;0.60;;
53497;SDS011;39382;47.168;16.008;2022-08-01T12:52:09;4.82;;;0.85;;
53497;SDS011;39382;47.168;16.008;2022-08-01T12:57:31;6.68;;;1.42;;
53497;SDS011;39382;47.168;16.008;2022-08-01T13:00:04;4.43;;;1.02;;
53497;SDS011;39382;47.168;16.008;2022-08-01T13:02:34;1.30;;;1.02;;
53497;SDS011;39382;47.168;16.008;2022-08-01T13:05:00;0.90;;;0.90;;
53497;SDS011;39382;47.168;16.008;2022-08-01T13:07:41;3.58;;;0.88;;
53497;SDS011;39382;47.168;16.008;2022-08-01T13:10:09;1.08;;;1.08;;
53497;SDS011;39382;47.168;16.008;2022-08-01T13:12:37;1.52;;;1.40;;
53497;SDS011;39382;47.168;16.008;2022-08-01T13:17:53;2.08;;;0.85;;
53497;SDS011;39382;47.168;16.008;2022-08-01T13:20:30;1.77;;;1.08;;
53497;SDS011;39382;47.168;16.008;2022-08-01T13:23:10;0.98;;;0.95;;
53497;SDS011;39382;47.168;16.008;2022-08-01T13:25:46;1.08;;;0.90;;
53497;SDS011;39382;47.168;16.008;2022-08-01T13:28:20;3.83;;;1.10;;
53497;SDS011;39382;47.168;16.008;2022-08-01T13:30:53;1.48;;;0.95;;
53497;SDS011;39382;47.168;16.008;2022-08-01T13:33:27;1.15;;;0.90;;
53497;SDS011;39382;47.168;16.008;2022-08-01T13:36:04;2.50;;;1.00;;
53497;SDS011;39382;47.168;16.008;2022-08-01T13:38:30;1.25;;;1.10;;
53497;SDS011;39382;47.168;16.008;2022-08-01T13:41:14;2.45;;;1.10;;
53497;SDS011;39382;47.168;16.008;2022-08-01T13:43:40;1.17;;;1.02;;
53497;SDS011;39382;47.168;16.008;2022-08-01T13:46:06;1.10;;;0.90;;
53497;SDS011;39382;47.168;16.008;2022-08-01T13:48:32;0.80;;;0.80;;
53497;SDS011;39382;47.168;16.008;2022-08-01T13:50:58;1.00;;;0.77;;
53497;SDS011;39382;47.168;16.008;2022-08-01T13:53:25;0.98;;;0.80;;
53497;SDS011;39382;47.168;16.008;2022-08-01T13:55:51;1.00;;;0.90;;
53497;SDS011;39382;47.168;16.008;2022-08-01T13:58:16;2.95;;;0.80;;
53497;SDS011;39382;47.168;16.008;2022-08-01T14:00:42;4.97;;;0.88;;
53497;SDS011;39382;47.168;16.008;2022-08-01T14:03:08;4.70;;;0.82;;
53497;SDS011;39382;47.168;16.008;2022-08-01T14:05:35;3.55;;;0.90;;
53497;SDS011;39382;47.168;16.008;2022-08-01T14:08:01;1.13;;;0.95;;
53497;SDS011;39382;47.168;16.008;2022-08-01T14:10:27;1.00;;;1.00;;
53497;SDS011;39382;47.168;16.008;2022-08-01T14:12:53;2.13;;;0.93;;
53497;SDS011;39382;47.168;16.008;2022-08-01T14:15:21;0.65;;;0.65;;
53497;SDS011;39382;47.168;16.008;2022-08-01T14:17:47;0.60;;;0.60;;
53497;SDS011;39382;47.168;16.008;2022-08-01T14:20:12;0.55;;;0.55;;
53497;SDS011;39382;47.168;16.008;2022-08-01T14:22:38;1.27;;;0.85;;
53497;SDS011;39382;47.168;16.008;2022-08-01T14:25:05;0.70;;;0.70;;
53497;SDS011;39382;47.168;16.008;2022-08-01T14:27:31;1.17;;;0.70;;
53497;SDS011;39382;47.168;16.008;2022-08-01T14:30:01;2.00;;;0.80;;
53497;SDS011;39382;47.168;16.008;2022-08-01T14:32:27;1.00;;;0.85;;
53497;SDS011;39382;47.168;16.008;2022-08-01T14:34:53;1.65;;;1.05;;
53497;SDS011;39382;47.168;16.008;2022-08-01T14:37:20;1.67;;;0.82;;
53497;SDS011;39382;47.168;16.008;2022-08-01T14:39:46;4.45;;;0.75;;
53497;SDS011;39382;47.168;16.008;2022-08-01T14:42:12;1.17;;;0.88;;
53497;SDS011;39382;47.168;16.008;2022-08-01T14:44:38;2.05;;;1.27;;
53497;SDS011;39382;47.168;16.008;2022-08-01T14:47:03;1.33;;;1.05;;
53497;SDS011;39382;47.168;16.008;2022-08-01T14:49:29;1.20;;;1.10;;
53497;SDS011;39382;47.168;16.008;2022-08-01T14:51:55;2.25;;;0.77;;
53497;SDS011;39382;47.168;16.008;2022-08-01T14:54:21;0.95;;;0.65;;
53497;SDS011;39382;47.168;16.008;2022-08-01T14:56:46;0.68;;;0.68;;
53497;SDS011;39382;47.168;16.008;2022-08-01T14:59:12;1.10;;;1.08;;
53497;SDS011;39382;47.168;16.008;2022-08-01T15:01:37;4.25;;;1.35;;
53497;SDS011;39382;47.168;16.008;2022-08-01T15:04:03;1.80;;;0.98;;
53497;SDS011;39382;47.168;16.008;2022-08-01T15:06:29;2.67;;;0.95;;
53497;SDS011;39382;47.168;16.008;2022-08-01T15:08:54;1.05;;;0.80;;
53497;SDS011;39382;47.168;16.008;2022-08-01T15:11:20;1.00;;;1.00;;
53497;SDS011;39382;47.168;16.008;2022-08-01T15:13:46;2.08;;;1.30;;
53497;SDS011;39382;47.168;16.008;2022-08-01T15:16:31;1.30;;;1.20;;
53497;SDS011;39382;47.168;16.008;2022-08-01T15:18:57;0.90;;;0.90;;
53497;SDS011;39382;47.168;16.008;2022-08-01T15:21:22;0.82;;;0.80;;
53497;SDS011;39382;47.168;16.008;2022-08-01T15:23:48;0.73;;;0.52;;
53497;SDS011;39382;47.168;16.008;2022-08-01T15:26:14;2.20;;;1.10;;
53497;SDS011;39382;47.168;16.008;2022-08-01T15:28:40;0.88;;;0.80;;